sensor_id;sensor_type;location;lat;lon;timestamp;pressure;altitude;pressure_sealevel;temperature;humidity
5913;BME280;2982;42.684;23.356;2022-08-14T00:02:13;94342.28;;;18.38;100.00
5913;BME280;2982;42.684;23.356;2022-08-14T00:04:39;94337.81;;;18.40;100.00
5913;BME280;2982;42.684;23.356;2022-08-14T00:07:04;94336.31;;;18.47;100.00
5913;BME280;2982;42.684;23.356;2022-08-14T00:09:30;94338.31;;;18.54;100.00
5913;BME280;2982;42.684;23.356;2022-08-14T00:11:56;94339.38;;;18.61;100.00
5913;BME280;2982;42.684;23.356;2022-08-14T00:14:22;94331.78;;;18.59;100.00
5913;BME280;2982;42.684;23.356;2022-08-14T00:16:47;94324.22;;;18.48;100.00
5913;BME280;2982;42.684;23.356;2022-08-14T00:19:13;94319.28;;;18.37;100.00
5913;BME280;2982;42.684;23.356;2022-08-14T00:21:38;94297.53;;;18.31;100.00
5913;BME280;2982;42.684;23.356;2022-08-14T00:24:04;94292.91;;;18.35;100.00
5913;BME280;2982;42.684;23.356;2022-08-14T00:26:29;94315.84;;;18.56;100.00
5913;BME280;2982;42.684;23.356;2022-08-14T00:28:55;94312.06;;;18.50;100.00
5913;BME280;2982;42.684;23.356;2022-08-14T00:31:21;94327.47;;;18.60;100.00
5913;BME280;2982;42.684;23.356;2022-08-14T00:33:50;94329.09;;;18.61;100.00
5913;BME280;2982;42.684;23.356;2022-08-14T00:36:15;94335.47;;;18.57;100.00
5913;BME280;2982;42.684;23.356;2022-08-14T00:38:41;94332.75;;;18.48;100.00
5913;BME280;2982;42.684;23.356;2022-08-14T00:41:07;94328.22;;;18.42;100.00
5913;BME280;2982;42.684;23.356;2022-08-14T00:43:35;94295.56;;;18.16;100.00
5913;BME280;2982;42.684;23.356;2022-08-14T00:46:05;94326.59;;;18.41;100.00
5913;BME280;2982;42.684;23.356;2022-08-14T00:48:31;94325.47;;;18.44;100.00
5913;BME280;2982;42.684;23.356;2022-08-14T00:50:56;94324.88;;;18.32;100.00
5913;BME280;2982;42.684;23.356;2022-08-14T00:53:22;94319.03;;;18.30;100.00
5913;BME280;2982;42.684;23.356;2022-08-14T00:55:49;94307.38;;;18.36;100.00
5913;BME280;2982;42.684;23.356;2022-08-14T00:58:14;94322.00;;;18.35;100.00
5913;BME280;2982;42.684;23.356;2022-08-14T01:00:40;94311.19;;;18.32;100.00
5913;BME280;2982;42.684;23.356;2022-08-14T01:03:06;94299.97;;;18.33;100.00
5913;BME280;2982;42.684;23.356;2022-08-14T01:05:33;94297.63;;;18.39;100.00
5913;BME280;2982;42.684;23.356;2022-08-14T01:07:59;94289.25;;;18.37;100.00
5913;BME280;2982;42.684;23.356;2022-08-14T01:10:27;94296.28;;;18.35;100.00
5913;BME280;2982;42.684;23.356;2022-08-14T01:12:53;94301.72;;;18.32;100.00
5913;BME280;2982;42.684;23.356;2022-08-14T01:15:19;94304.00;;;18.35;100.00
5913;BME280;2982;42.684;23.356;2022-08-14T01:17:44;94298.03;;;18.35;100.00
5913;BME280;2982;42.684;23.356;2022-08-14T01:20:11;94274.00;;;18.26;100.00
5913;BME280;2982;42.684;23.356;2022-08-14T01:22:36;94293.72;;;18.35;100.00
5913;BME280;2982;42.684;23.356;2022-08-14T01:25:01;94283.34;;;18.27;100.00
5913;BME280;2982;42.684;23.356;2022-08-14T01:27:27;94284.53;;;18.33;100.00
5913;BME280;2982;42.684;23.356;2022-08-14T01:29:54;94286.06;;;18.26;100.00
5913;BME280;2982;42.684;23.356;2022-08-14T01:32:21;94287.69;;;18.27;100.00
5913;BME280;2982;42.684;23.356;2022-08-14T01:34:52;94284.53;;;18.33;100.00
5913;BME280;2982;42.684;23.356;2022-08-14T01:37:19;94289.00;;;18.31;100.00
5913;BME280;2982;42.684;23.356;2022-08-14T01:39:44;94288.41;;;18.19;100.00
5913;BME280;2982;42.684;23.356;2022-08-14T01:42:09;94287.34;;;18.12;100.00
5913;BME280;2982;42.684;23.356;2022-08-14T01:44:35;94287.34;;;18.12;100.00
5913;BME280;2982;42.684;23.356;2022-08-14T01:47:04;94291.91;;;18.18;100.00
5913;BME280;2982;42.684;23.356;2022-08-14T01:49:30;94288.91;;;18.23;100.00
5913;BME280;2982;42.684;23.356;2022-08-14T01:51:55;94291.34;;;18.24;100.00
5913;BME280;2982;42.684;23.356;2022-08-14T01:54:23;94300.66;;;18.25;100.00
5913;BME280;2982;42.684;23.356;2022-08-14T01:56:53;94293.34;;;18.30;100.00
5913;BME280;2982;42.684;23.356;2022-08-14T01:59:26;94279.09;;;18.36;100.00
5913;BME280;2982;42.684;23.356;2022-08-14T02:01:53;94259.31;;;18.19;100.00
5913;BME280;2982;42.684;23.356;2022-08-14T02:04:20;94282.53;;;18.27;100.00
5913;BME280;2982;42.684;23.356;2022-08-14T02:06:47;94281.63;;;18.18;100.00
5913;BME280;2982;42.684;23.356;2022-08-14T02:09:12;94264.44;;;17.91;100.00
5913;BME280;2982;42.684;23.356;2022-08-14T02:11:37;94291.94;;;18.09;100.00
5913;BME280;2982;42.684;23.356;2022-08-14T02:14:09;94287.34;;;18.12;100.00
5913;BME280;2982;42.684;23.356;2022-08-14T02:16:38;94281.53;;;18.10;100.00
5913;BME280;2982;42.684;23.356;2022-08-14T02:19:07;94266.84;;;17.93;100.00
5913;BME280;2982;42.684;23.356;2022-08-14T02:21:33;94273.22;;;17.89;100.00
5913;BME280;2982;42.684;23.356;2022-08-14T02:24:01;94257.44;;;17.74;100.00
5913;BME280;2982;42.684;23.356;2022-08-14T02:26:31;94269.56;;;17.91;100.00
5913;BME280;2982;42.684;23.356;2022-08-14T02:29:00;94234.75;;;17.70;100.00
5913;BME280;2982;42.684;23.356;2022-08-14T02:31:34;94263.88;;;17.88;100.00
5913;BME280;2982;42.684;23.356;2022-08-14T02:34:06;94266.75;;;17.85;100.00
5913;BME280;2982;42.684;23.356;2022-08-14T02:36:38;94274.84;;;17.90;100.00
5913;BME280;2982;42.684;23.356;2022-08-14T02:39:08;94268.47;;;17.94;100.00
5913;BME280;2982;42.684;23.356;2022-08-14T02:41:34;94266.94;;;18.01;100.00
5913;BME280;2982;42.684;23.356;2022-08-14T02:44:01;94271.25;;;18.10;100.00
5913;BME280;2982;42.684;23.356;2022-08-14T02:46:27;94268.13;;;18.07;100.00
5913;BME280;2982;42.684;23.356;2022-08-14T02:48:53;94274.47;;;18.12;100.00
5913;BME280;2982;42.684;23.356;2022-08-14T02:51:18;94268.41;;;18.13;100.00
5913;BME280;2982;42.684;23.356;2022-08-14T02:53:45;94268.09;;;18.16;100.00
5913;BME280;2982;42.684;23.356;2022-08-14T02:56:13;94263.63;;;18.18;100.00
5913;BME280;2982;42.684;23.356;2022-08-14T02:58:40;94264.59;;;18.17;100.00
5913;BME280;2982;42.684;23.356;2022-08-14T03:01:07;94268.94;;;18.07;100.00
5913;BME280;2982;42.684;23.356;2022-08-14T03:03:36;94254.81;;;17.93;100.00
5913;BME280;2982;42.684;23.356;2022-08-14T03:06:06;94263.84;;;17.97;100.00
5913;BME280;2982;42.684;23.356;2022-08-14T03:08:33;94267.22;;;17.98;100.00
5913;BME280;2982;42.684;23.356;2022-08-14T03:11:00;94266.19;;;17.91;100.00
5913;BME280;2982;42.684;23.356;2022-08-14T03:13:26;94261.56;;;17.94;100.00
5913;BME280;2982;42.684;23.356;2022-08-14T03:15:51;94256.84;;;17.90;100.00
5913;BME280;2982;42.684;23.356;2022-08-14T03:18:17;94268.59;;;17.92;100.00
5913;BME280;2982;42.684;23.356;2022-08-14T03:20:42;94270.66;;;17.89;100.00
5913;BME280;2982;42.684;23.356;2022-08-14T03:23:07;94273.50;;;17.86;100.00
5913;BME280;2982;42.684;23.356;2022-08-14T03:25:33;94267.66;;;17.93;100.00
5913;BME280;2982;42.684;23.356;2022-08-14T03:28:06;94273.09;;;17.90;100.00
5913;BME280;2982;42.684;23.356;2022-08-14T03:30:32;94270.63;;;17.98;100.00
5913;BME280;2982;42.684;23.356;2022-08-14T03:32:58;94258.94;;;17.77;100.00
5913;BME280;2982;42.684;23.356;2022-08-14T03:35:24;94289.03;;;17.94;100.00
5913;BME280;2982;42.684;23.356;2022-08-14T03:37:49;94292.41;;;17.94;100.00
5913;BME280;2982;42.684;23.356;2022-08-14T03:40:15;94288.72;;;17.97;100.00
5913;BME280;2982;42.684;23.356;2022-08-14T03:42:40;94298.06;;;17.98;100.00
5913;BME280;2982;42.684;23.356;2022-08-14T03:45:05;94294.16;;;17.94;100.00
5913;BME280;2982;42.684;23.356;2022-08-14T03:47:31;94290.13;;;17.91;100.00
5913;BME280;2982;42.684;23.356;2022-08-14T03:49:56;94291.06;;;17.90;100.00
5913;BME280;2982;42.684;23.356;2022-08-14T03:52:21;94301.88;;;17.94;100.00
5913;BME280;2982;42.684;23.356;2022-08-14T03:54:47;94302.00;;;17.92;100.00
5913;BME280;2982;42.684;23.356;2022-08-14T03:57:12;94297.13;;;17.99;100.00
5913;BME280;2982;42.684;23.356;2022-08-14T03:59:37;94285.50;;;17.95;100.00
5913;BME280;2982;42.684;23.356;2022-08-14T04:02:06;94278.06;;;17.92;100.00
5913;BME280;2982;42.684;23.356;2022-08-14T04:04:31;94284.56;;;17.96;100.00
5913;BME280;2982;42.684;23.356;2022-08-14T04:06:56;94301.56;;;17.97;100.00
5913;BME280;2982;42.684;23.356;2022-08-14T04:09:22;94302.91;;;18.01;100.00
5913;BME280;2982;42.684;23.356;2022-08-14T04:11:47;94299.28;;;18.03;100.00
5913;BME280;2982;42.684;23.356;2022-08-14T04:14:12;94300.47;;;18.09;100.00
5913;BME280;2982;42.684;23.356;2022-08-14T04:16:38;94296.84;;;18.02;100.00
5913;BME280;2982;42.684;23.356;2022-08-14T04:19:03;94304.31;;;17.95;100.00
5913;BME280;2982;42.684;23.356;2022-08-14T04:21:29;94287.13;;;17.96;100.00
5913;BME280;2982;42.684;23.356;2022-08-14T04:23:56;94298.94;;;18.16;100.00
5913;BME280;2982;42.684;23.356;2022-08-14T04:26:23;94280.56;;;18.11;100.00
5913;BME280;2982;42.684;23.356;2022-08-14T04:28:49;94290.81;;;18.21;100.00
5913;BME280;2982;42.684;23.356;2022-08-14T04:31:16;94273.75;;;18.20;100.00
5913;BME280;2982;42.684;23.356;2022-08-14T04:33:42;94296.66;;;18.40;100.00
5913;BME280;2982;42.684;23.356;2022-08-14T04:36:08;94303.44;;;18.41;100.00
5913;BME280;2982;42.684;23.356;2022-08-14T04:38:33;94280.34;;;18.32;100.00
5913;BME280;2982;42.684;23.356;2022-08-14T04:40:58;94287.75;;;18.35;100.00
5913;BME280;2982;42.684;23.356;2022-08-14T04:43:24;94294.66;;;18.34;100.00
5913;BME280;2982;42.684;23.356;2022-08-14T04:45:49;94292.03;;;18.44;100.00
5913;BME280;2982;42.684;23.356;2022-08-14T04:48:16;94275.41;;;18.38;100.00
5913;BME280;2982;42.684;23.356;2022-08-14T04:50:46;57515.69;;;-143.17;100.00
5913;BME280;2982;42.684;23.356;2022-08-14T04:53:20;94295.00;;;18.49;100.00
5913;BME280;2982;42.684;23.356;2022-08-14T04:55:47;57515.69;;;-143.17;100.00
5913;BME280;2982;42.684;23.356;2022-08-14T04:58:17;57515.69;;;-143.17;100.00
5913;BME280;2982;42.684;23.356;2022-08-14T05:00:47;57515.69;;;-143.17;100.00
5913;BME280;2982;42.684;23.356;2022-08-14T05:03:13;57515.69;;;-143.17;100.00
5913;BME280;2982;42.684;23.356;2022-08-14T05:05:38;57515.69;;;-143.17;100.00
5913;BME280;2982;42.684;23.356;2022-08-14T05:08:08;57515.69;;;-143.17;100.00
5913;BME280;2982;42.684;23.356;2022-08-14T05:10:35;57515.69;;;-143.17;100.00
5913;BME280;2982;42.684;23.356;2022-08-14T05:13:01;57515.69;;;-143.17;100.00
5913;BME280;2982;42.684;23.356;2022-08-14T05:15:26;57515.69;;;-143.17;100.00
5913;BME280;2982;42.684;23.356;2022-08-14T05:17:51;57515.69;;;-143.17;100.00
5913;BME280;2982;42.684;23.356;2022-08-14T05:20:16;57515.69;;;-143.17;100.00
5913;BME280;2982;42.684;23.356;2022-08-14T05:22:42;57515.69;;;-143.17;100.00
5913;BME280;2982;42.684;23.356;2022-08-14T05:25:07;57515.69;;;-143.17;100.00
5913;BME280;2982;42.684;23.356;2022-08-14T05:27:32;57515.69;;;-143.17;100.00
5913;BME280;2982;42.684;23.356;2022-08-14T05:30:03;57515.69;;;-143.17;100.00
5913;BME280;2982;42.684;23.356;2022-08-14T05:32:28;57515.69;;;-143.17;100.00
5913;BME280;2982;42.684;23.356;2022-08-14T05:34:56;57515.69;;;-143.17;100.00
5913;BME280;2982;42.684;23.356;2022-08-14T05:37:21;57515.69;;;-143.17;100.00
5913;BME280;2982;42.684;23.356;2022-08-14T05:39:46;57515.69;;;-143.17;100.00
5913;BME280;2982;42.684;23.356;2022-08-14T05:42:13;57515.69;;;-143.17;100.00
5913;BME280;2982;42.684;23.356;2022-08-14T05:44:38;57515.69;;;-143.17;100.00
5913;BME280;2982;42.684;23.356;2022-08-14T05:47:03;57515.69;;;-143.17;100.00
5913;BME280;2982;42.684;23.356;2022-08-14T05:49:29;57515.69;;;-143.17;100.00
5913;BME280;2982;42.684;23.356;2022-08-14T05:51:54;57515.69;;;-143.17;100.00
5913;BME280;2982;42.684;23.356;2022-08-14T05:54:19;57515.69;;;-143.17;100.00
5913;BME280;2982;42.684;23.356;2022-08-14T05:56:45;57515.69;;;-143.17;100.00
5913;BME280;2982;42.684;23.356;2022-08-14T05:59:10;57515.69;;;-143.17;100.00
5913;BME280;2982;42.684;23.356;2022-08-14T06:01:35;57515.69;;;-143.17;100.00
5913;BME280;2982;42.684;23.356;2022-08-14T06:04:01;57515.69;;;-143.17;100.00
5913;BME280;2982;42.684;23.356;2022-08-14T06:06:26;57515.69;;;-143.17;100.00
5913;BME280;2982;42.684;23.356;2022-08-14T06:08:51;57515.69;;;-143.17;100.00
5913;BME280;2982;42.684;23.356;2022-08-14T06:11:17;57515.69;;;-143.17;100.00
5913;BME280;2982;42.684;23.356;2022-08-14T06:13:42;57515.69;;;-143.17;100.00
5913;BME280;2982;42.684;23.356;2022-08-14T06:16:08;57515.69;;;-143.17;100.00
5913;BME280;2982;42.684;23.356;2022-08-14T06:18:34;57515.69;;;-143.17;100.00
5913;BME280;2982;42.684;23.356;2022-08-14T06:21:02;57515.69;;;-143.17;100.00
5913;BME280;2982;42.684;23.356;2022-08-14T06:23:28;57515.69;;;-143.17;100.00
5913;BME280;2982;42.684;23.356;2022-08-14T06:25:53;57515.69;;;-143.17;100.00
5913;BME280;2982;42.684;23.356;2022-08-14T06:28:22;57515.69;;;-143.17;100.00
5913;BME280;2982;42.684;23.356;2022-08-14T06:30:48;57515.69;;;-143.17;100.00
5913;BME280;2982;42.684;23.356;2022-08-14T06:33:15;57515.69;;;-143.17;100.00
5913;BME280;2982;42.684;23.356;2022-08-14T06:35:41;57515.69;;;-143.17;100.00
5913;BME280;2982;42.684;23.356;2022-08-14T06:38:06;57515.69;;;-143.17;100.00
5913;BME280;2982;42.684;23.356;2022-08-14T06:40:34;57515.69;;;-143.17;100.00
5913;BME280;2982;42.684;23.356;2022-08-14T06:43:03;57515.69;;;-143.17;100.00
5913;BME280;2982;42.684;23.356;2022-08-14T06:45:39;57515.69;;;-143.17;100.00
5913;BME280;2982;42.684;23.356;2022-08-14T06:48:16;57515.69;;;-143.17;100.00
5913;BME280;2982;42.684;23.356;2022-08-14T06:50:43;57515.69;;;-143.17;100.00
5913;BME280;2982;42.684;23.356;2022-08-14T06:53:09;57515.69;;;-143.17;100.00
5913;BME280;2982;42.684;23.356;2022-08-14T06:55:34;57515.69;;;-143.17;100.00
5913;BME280;2982;42.684;23.356;2022-08-14T06:58:00;57515.69;;;-143.17;100.00
5913;BME280;2982;42.684;23.356;2022-08-14T07:00:27;57515.69;;;-143.17;100.00
5913;BME280;2982;42.684;23.356;2022-08-14T07:02:53;57515.69;;;-143.17;100.00
5913;BME280;2982;42.684;23.356;2022-08-14T07:05:18;57515.69;;;-143.17;100.00
5913;BME280;2982;42.684;23.356;2022-08-14T07:07:44;57515.69;;;-143.17;100.00
5913;BME280;2982;42.684;23.356;2022-08-14T07:10:09;57515.69;;;-143.17;100.00
5913;BME280;2982;42.684;23.356;2022-08-14T07:12:35;57515.69;;;-143.17;100.00
5913;BME280;2982;42.684;23.356;2022-08-14T07:15:00;57515.69;;;-143.17;100.00
5913;BME280;2982;42.684;23.356;2022-08-14T07:17:26;57515.69;;;-143.17;100.00
5913;BME280;2982;42.684;23.356;2022-08-14T07:19:51;57515.69;;;-143.17;100.00
5913;BME280;2982;42.684;23.356;2022-08-14T07:22:16;57515.69;;;-143.17;100.00
5913;BME280;2982;42.684;23.356;2022-08-14T07:24:42;57515.69;;;-143.17;100.00
5913;BME280;2982;42.684;23.356;2022-08-14T07:27:07;57515.69;;;-143.17;100.00
5913;BME280;2982;42.684;23.356;2022-08-14T07:29:32;57515.69;;;-143.17;100.00
5913;BME280;2982;42.684;23.356;2022-08-14T07:31:58;57515.69;;;-143.17;100.00
5913;BME280;2982;42.684;23.356;2022-08-14T07:34:23;57515.69;;;-143.17;100.00
5913;BME280;2982;42.684;23.356;2022-08-14T07:36:49;57515.69;;;-143.17;100.00
5913;BME280;2982;42.684;23.356;2022-08-14T07:39:14;57515.69;;;-143.17;100.00
5913;BME280;2982;42.684;23.356;2022-08-14T07:41:39;57515.69;;;-143.17;100.00
5913;BME280;2982;42.684;23.356;2022-08-14T07:44:05;57515.69;;;-143.17;100.00
5913;BME280;2982;42.684;23.356;2022-08-14T07:46:30;57515.69;;;-143.17;100.00
5913;BME280;2982;42.684;23.356;2022-08-14T07:48:56;57515.69;;;-143.17;100.00
5913;BME280;2982;42.684;23.356;2022-08-14T07:51:21;57515.69;;;-143.17;100.00
5913;BME280;2982;42.684;23.356;2022-08-14T07:53:47;57515.69;;;-143.17;100.00
5913;BME280;2982;42.684;23.356;2022-08-14T07:56:12;57515.69;;;-143.17;100.00
5913;BME280;2982;42.684;23.356;2022-08-14T07:58:38;57515.69;;;-143.17;100.00
5913;BME280;2982;42.684;23.356;2022-08-14T08:01:05;57515.69;;;-143.17;100.00
5913;BME280;2982;42.684;23.356;2022-08-14T08:03:33;57515.69;;;-143.17;100.00
5913;BME280;2982;42.684;23.356;2022-08-14T08:05:58;57515.69;;;-143.17;100.00
5913;BME280;2982;42.684;23.356;2022-08-14T08:08:24;57515.69;;;-143.17;100.00
5913;BME280;2982;42.684;23.356;2022-08-14T08:10:54;57515.69;;;-143.17;100.00
5913;BME280;2982;42.684;23.356;2022-08-14T08:13:20;57515.69;;;-143.17;100.00
5913;BME280;2982;42.684;23.356;2022-08-14T08:15:56;57515.69;;;-143.17;100.00
5913;BME280;2982;42.684;23.356;2022-08-14T08:18:22;57515.69;;;-143.17;100.00
5913;BME280;2982;42.684;23.356;2022-08-14T08:20:51;57515.69;;;-143.17;100.00
5913;BME280;2982;42.684;23.356;2022-08-14T08:23:19;57515.69;;;-143.17;100.00
5913;BME280;2982;42.684;23.356;2022-08-14T08:25:47;57515.69;;;-143.17;100.00
5913;BME280;2982;42.684;23.356;2022-08-14T08:28:15;57515.69;;;-143.17;100.00
5913;BME280;2982;42.684;23.356;2022-08-14T08:30:46;57515.69;;;-143.17;100.00
5913;BME280;2982;42.684;23.356;2022-08-14T08:33:11;57515.69;;;-143.17;100.00
5913;BME280;2982;42.684;23.356;2022-08-14T08:35:37;57515.69;;;-143.17;100.00
5913;BME280;2982;42.684;23.356;2022-08-14T08:38:09;57515.69;;;-143.17;100.00
5913;BME280;2982;42.684;23.356;2022-08-14T08:40:36;57515.69;;;-143.17;100.00
5913;BME280;2982;42.684;23.356;2022-08-14T08:43:03;57515.69;;;-143.17;100.00
5913;BME280;2982;42.684;23.356;2022-08-14T08:45:29;57515.69;;;-143.17;100.00
5913;BME280;2982;42.684;23.356;2022-08-14T08:47:54;57515.69;;;-143.17;100.00
5913;BME280;2982;42.684;23.356;2022-08-14T08:50:21;57515.69;;;-143.17;100.00
5913;BME280;2982;42.684;23.356;2022-08-14T08:52:50;57515.69;;;-143.17;100.00
5913;BME280;2982;42.684;23.356;2022-08-14T08:57:55;57515.69;;;-143.17;100.00
5913;BME280;2982;42.684;23.356;2022-08-14T09:00:20;57515.69;;;-143.17;100.00
5913;BME280;2982;42.684;23.356;2022-08-14T09:03:04;57515.69;;;-143.17;100.00
5913;BME280;2982;42.684;23.356;2022-08-14T09:05:31;57515.69;;;-143.17;100.00
5913;BME280;2982;42.684;23.356;2022-08-14T09:08:10;57515.69;;;-143.17;100.00
5913;BME280;2982;42.684;23.356;2022-08-14T09:10:36;57515.69;;;-143.17;100.00
5913;BME280;2982;42.684;23.356;2022-08-14T09:13:01;57515.69;;;-143.17;100.00
5913;BME280;2982;42.684;23.356;2022-08-14T09:15:26;57515.69;;;-143.17;100.00
5913;BME280;2982;42.684;23.356;2022-08-14T09:17:52;57515.69;;;-143.17;100.00
5913;BME280;2982;42.684;23.356;2022-08-14T09:20:17;57515.69;;;-143.17;100.00
5913;BME280;2982;42.684;23.356;2022-08-14T09:22:43;57515.69;;;-143.17;100.00
5913;BME280;2982;42.684;23.356;2022-08-14T09:25:09;57515.69;;;-143.17;100.00
5913;BME280;2982;42.684;23.356;2022-08-14T09:27:36;57515.69;;;-143.17;100.00
5913;BME280;2982;42.684;23.356;2022-08-14T09:30:04;57515.69;;;-143.17;100.00
5913;BME280;2982;42.684;23.356;2022-08-14T09:32:38;57515.69;;;-143.17;100.00
5913;BME280;2982;42.684;23.356;2022-08-14T09:41:36;57515.69;;;-143.17;100.00
5913;BME280;2982;42.684;23.356;2022-08-14T09:46:59;57515.69;;;-143.17;100.00
5913;BME280;2982;42.684;23.356;2022-08-14T09:49:35;57515.69;;;-143.17;100.00
5913;BME280;2982;42.684;23.356;2022-08-14T09:52:07;57515.69;;;-143.17;100.00
5913;BME280;2982;42.684;23.356;2022-08-14T09:57:06;57515.69;;;-143.17;100.00
5913;BME280;2982;42.684;23.356;2022-08-14T09:59:39;57515.69;;;-143.17;100.00
5913;BME280;2982;42.684;23.356;2022-08-14T10:02:18;57515.69;;;-143.17;100.00
5913;BME280;2982;42.684;23.356;2022-08-14T10:04:43;57515.69;;;-143.17;100.00
5913;BME280;2982;42.684;23.356;2022-08-14T10:07:08;57515.69;;;-143.17;100.00
5913;BME280;2982;42.684;23.356;2022-08-14T10:09:47;57515.69;;;-143.17;100.00
5913;BME280;2982;42.684;23.356;2022-08-14T10:12:13;57515.69;;;-143.17;100.00
5913;BME280;2982;42.684;23.356;2022-08-14T10:14:38;57515.69;;;-143.17;100.00
5913;BME280;2982;42.684;23.356;2022-08-14T10:17:05;57515.69;;;-143.17;100.00
5913;BME280;2982;42.684;23.356;2022-08-14T10:19:31;57515.69;;;-143.17;100.00
5913;BME280;2982;42.684;23.356;2022-08-14T10:22:01;57515.69;;;-143.17;100.00
5913;BME280;2982;42.684;23.356;2022-08-14T10:24:30;57515.69;;;-143.17;100.00
5913;BME280;2982;42.684;23.356;2022-08-14T10:26:59;57515.69;;;-143.17;100.00
5913;BME280;2982;42.684;23.356;2022-08-14T10:29:36;57515.69;;;-143.17;100.00
5913;BME280;2982;42.684;23.356;2022-08-14T10:32:02;57515.69;;;-143.17;100.00
5913;BME280;2982;42.684;23.356;2022-08-14T10:34:35;57515.69;;;-143.17;100.00
5913;BME280;2982;42.684;23.356;2022-08-14T10:37:05;57515.69;;;-143.17;100.00
5913;BME280;2982;42.684;23.356;2022-08-14T10:39:31;57515.69;;;-143.17;100.00
5913;BME280;2982;42.684;23.356;2022-08-14T10:42:08;57515.69;;;-143.17;100.00
5913;BME280;2982;42.684;23.356;2022-08-14T10:44:35;57515.69;;;-143.17;100.00
5913;BME280;2982;42.684;23.356;2022-08-14T10:47:01;57515.69;;;-143.17;100.00
5913;BME280;2982;42.684;23.356;2022-08-14T10:49:27;57515.69;;;-143.17;100.00
5913;BME280;2982;42.684;23.356;2022-08-14T10:54:31;57515.69;;;-143.17;100.00
5913;BME280;2982;42.684;23.356;2022-08-14T10:59:42;57515.69;;;-143.17;100.00
5913;BME280;2982;42.684;23.356;2022-08-14T11:02:30;57515.69;;;-143.17;100.00
5913;BME280;2982;42.684;23.356;2022-08-14T11:05:17;57515.69;;;-143.17;100.00
5913;BME280;2982;42.684;23.356;2022-08-14T11:10:23;57515.69;;;-143.17;100.00
5913;BME280;2982;42.684;23.356;2022-08-14T11:12:51;57515.69;;;-143.17;100.00
5913;BME280;2982;42.684;23.356;2022-08-14T11:15:18;57515.69;;;-143.17;100.00
5913;BME280;2982;42.684;23.356;2022-08-14T11:17:45;57515.69;;;-143.17;100.00
5913;BME280;2982;42.684;23.356;2022-08-14T11:20:12;57515.69;;;-143.17;100.00
5913;BME280;2982;42.684;23.356;2022-08-14T11:22:40;57515.69;;;-143.17;100.00
5913;BME280;2982;42.684;23.356;2022-08-14T11:25:08;57515.69;;;-143.17;100.00
5913;BME280;2982;42.684;23.356;2022-08-14T11:27:34;57515.69;;;-143.17;100.00
5913;BME280;2982;42.684;23.356;2022-08-14T11:30:03;57515.69;;;-143.17;100.00
5913;BME280;2982;42.684;23.356;2022-08-14T11:32:29;57515.69;;;-143.17;100.00
5913;BME280;2982;42.684;23.356;2022-08-14T11:34:55;57515.69;;;-143.17;100.00
5913;BME280;2982;42.684;23.356;2022-08-14T11:37:20;57515.69;;;-143.17;100.00
5913;BME280;2982;42.684;23.356;2022-08-14T11:39:45;57515.69;;;-143.17;100.00
5913;BME280;2982;42.684;23.356;2022-08-14T11:42:23;57515.69;;;-143.17;100.00
5913;BME280;2982;42.684;23.356;2022-08-14T11:44:51;57515.69;;;-143.17;100.00
5913;BME280;2982;42.684;23.356;2022-08-14T11:47:16;57515.69;;;-143.17;100.00
5913;BME280;2982;42.684;23.356;2022-08-14T11:49:41;57515.69;;;-143.17;100.00
5913;BME280;2982;42.684;23.356;2022-08-14T11:52:07;57515.69;;;-143.17;100.00
5913;BME280;2982;42.684;23.356;2022-08-14T11:54:32;57515.69;;;-143.17;100.00
5913;BME280;2982;42.684;23.356;2022-08-14T11:56:58;57515.69;;;-143.17;100.00
5913;BME280;2982;42.684;23.356;2022-08-14T11:59:23;57515.69;;;-143.17;100.00
5913;BME280;2982;42.684;23.356;2022-08-14T12:01:48;57515.69;;;-143.17;100.00
5913;BME280;2982;42.684;23.356;2022-08-14T12:04:16;57515.69;;;-143.17;100.00
5913;BME280;2982;42.684;23.356;2022-08-14T12:06:49;57515.69;;;-143.17;100.00
5913;BME280;2982;42.684;23.356;2022-08-14T12:09:32;57515.69;;;-143.17;100.00
5913;BME280;2982;42.684;23.356;2022-08-14T12:11:58;57515.69;;;-143.17;100.00
5913;BME280;2982;42.684;23.356;2022-08-14T12:14:24;57515.69;;;-143.17;100.00
5913;BME280;2982;42.684;23.356;2022-08-14T12:17:03;57515.69;;;-143.17;100.00
5913;BME280;2982;42.684;23.356;2022-08-14T12:19:29;57515.69;;;-143.17;100.00
5913;BME280;2982;42.684;23.356;2022-08-14T12:21:54;57515.69;;;-143.17;100.00
5913;BME280;2982;42.684;23.356;2022-08-14T12:24:26;57515.69;;;-143.17;100.00
5913;BME280;2982;42.684;23.356;2022-08-14T12:26:55;57515.69;;;-143.17;100.00
5913;BME280;2982;42.684;23.356;2022-08-14T12:29:21;57515.69;;;-143.17;100.00
5913;BME280;2982;42.684;23.356;2022-08-14T12:31:57;57515.69;;;-143.17;100.00
5913;BME280;2982;42.684;23.356;2022-08-14T12:34:29;57515.69;;;-143.17;100.00
5913;BME280;2982;42.684;23.356;2022-08-14T12:37:06;57515.69;;;-143.17;100.00
5913;BME280;2982;42.684;23.356;2022-08-14T12:39:33;57515.69;;;-143.17;100.00
5913;BME280;2982;42.684;23.356;2022-08-14T12:41:58;57515.69;;;-143.17;100.00
5913;BME280;2982;42.684;23.356;2022-08-14T12:44:35;57515.69;;;-143.17;100.00
5913;BME280;2982;42.684;23.356;2022-08-14T12:47:08;57515.69;;;-143.17;100.00
5913;BME280;2982;42.684;23.356;2022-08-14T12:49:34;57515.69;;;-143.17;100.00
5913;BME280;2982;42.684;23.356;2022-08-14T12:52:01;57515.69;;;-143.17;100.00
5913;BME280;2982;42.684;23.356;2022-08-14T12:54:26;57515.69;;;-143.17;100.00
5913;BME280;2982;42.684;23.356;2022-08-14T12:57:02;57515.69;;;-143.17;100.00
5913;BME280;2982;42.684;23.356;2022-08-14T12:59:29;57515.69;;;-143.17;100.00
5913;BME280;2982;42.684;23.356;2022-08-14T13:01:55;57515.69;;;-143.17;100.00
5913;BME280;2982;42.684;23.356;2022-08-14T13:04:21;57515.69;;;-143.17;100.00
5913;BME280;2982;42.684;23.356;2022-08-14T13:06:46;57515.69;;;-143.17;100.00
5913;BME280;2982;42.684;23.356;2022-08-14T13:09:13;57515.69;;;-143.17;100.00
5913;BME280;2982;42.684;23.356;2022-08-14T13:11:43;57515.69;;;-143.17;100.00